sensor_id;sensor_type;location;lat;lon;timestamp;temperature;humidity
19522;DHT22;9905;52.126;5.596;2023-02-01T00:02:25;4.70;99.90
19522;DHT22;9905;52.126;5.596;2023-02-01T00:04:52;4.70;99.90
19522;DHT22;9905;52.126;5.596;2023-02-01T00:07:18;4.70;99.90
19522;DHT22;9905;52.126;5.596;2023-02-01T00:09:45;4.80;99.90
19522;DHT22;9905;52.126;5.596;2023-02-01T00:12:12;4.70;99.90
19522;DHT22;9905;52.126;5.596;2023-02-01T00:14:39;4.70;99.90
19522;DHT22;9905;52.126;5.596;2023-02-01T00:17:06;4.80;99.90
19522;DHT22;9905;52.126;5.596;2023-02-01T00:19:34;4.80;99.90
19522;DHT22;9905;52.126;5.596;2023-02-01T00:22:01;4.80;99.90
19522;DHT22;9905;52.126;5.596;2023-02-01T00:24:28;4.80;99.90
19522;DHT22;9905;52.126;5.596;2023-02-01T00:26:54;4.80;99.90
19522;DHT22;9905;52.126;5.596;2023-02-01T00:29:22;4.80;99.90
19522;DHT22;9905;52.126;5.596;2023-02-01T00:31:50;4.90;99.90
19522;DHT22;9905;52.126;5.596;2023-02-01T00:34:17;4.90;99.90
19522;DHT22;9905;52.126;5.596;2023-02-01T00:36:46;4.90;99.90
19522;DHT22;9905;52.126;5.596;2023-02-01T00:39:13;4.90;99.90
19522;DHT22;9905;52.126;5.596;2023-02-01T00:41:40;4.90;99.90
19522;DHT22;9905;52.126;5.596;2023-02-01T00:44:07;4.90;99.90
19522;DHT22;9905;52.126;5.596;2023-02-01T00:46:34;4.90;99.90
19522;DHT22;9905;52.126;5.596;2023-02-01T00:49:01;5.00;99.90
19522;DHT22;9905;52.126;5.596;2023-02-01T00:51:28;5.00;99.90
19522;DHT22;9905;52.126;5.596;2023-02-01T00:53:57;5.00;99.90
19522;DHT22;9905;52.126;5.596;2023-02-01T00:56:24;5.00;99.90
19522;DHT22;9905;52.126;5.596;2023-02-01T00:58:52;5.10;99.90
19522;DHT22;9905;52.126;5.596;2023-02-01T01:01:21;5.10;99.90
19522;DHT22;9905;52.126;5.596;2023-02-01T01:03:49;5.10;99.90
19522;DHT22;9905;52.126;5.596;2023-02-01T01:06:19;5.20;99.90
19522;DHT22;9905;52.126;5.596;2023-02-01T01:08:47;5.30;99.90
19522;DHT22;9905;52.126;5.596;2023-02-01T01:11:18;5.30;99.90
19522;DHT22;9905;52.126;5.596;2023-02-01T01:13:47;5.30;99.90
19522;DHT22;9905;52.126;5.596;2023-02-01T01:16:14;5.40;99.90
19522;DHT22;9905;52.126;5.596;2023-02-01T01:18:42;5.40;99.90
19522;DHT22;9905;52.126;5.596;2023-02-01T01:21:12;5.40;99.90
19522;DHT22;9905;52.126;5.596;2023-02-01T01:23:39;5.50;99.90
19522;DHT22;9905;52.126;5.596;2023-02-01T01:26:07;5.50;99.90
19522;DHT22;9905;52.126;5.596;2023-02-01T01:28:35;5.50;99.90
19522;DHT22;9905;52.126;5.596;2023-02-01T01:31:02;5.50;99.90
19522;DHT22;9905;52.126;5.596;2023-02-01T01:33:29;5.60;99.90
19522;DHT22;9905;52.126;5.596;2023-02-01T01:35:56;5.60;99.90
19522;DHT22;9905;52.126;5.596;2023-02-01T01:38:22;5.60;99.90
19522;DHT22;9905;52.126;5.596;2023-02-01T01:40:49;5.60;99.90
19522;DHT22;9905;52.126;5.596;2023-02-01T01:43:18;5.70;99.90
19522;DHT22;9905;52.126;5.596;2023-02-01T01:45:49;5.70;99.90
19522;DHT22;9905;52.126;5.596;2023-02-01T01:48:18;5.80;99.90
19522;DHT22;9905;52.126;5.596;2023-02-01T01:50:49;5.80;99.90
19522;DHT22;9905;52.126;5.596;2023-02-01T01:53:23;5.90;99.90
19522;DHT22;9905;52.126;5.596;2023-02-01T01:55:52;5.90;99.90
19522;DHT22;9905;52.126;5.596;2023-02-01T01:58:24;5.90;99.90
19522;DHT22;9905;52.126;5.596;2023-02-01T02:00:53;5.90;99.90
19522;DHT22;9905;52.126;5.596;2023-02-01T02:03:22;6.00;99.90
19522;DHT22;9905;52.126;5.596;2023-02-01T02:05:53;6.00;99.90
19522;DHT22;9905;52.126;5.596;2023-02-01T02:08:21;6.10;99.90
19522;DHT22;9905;52.126;5.596;2023-02-01T02:10:48;6.10;99.90
19522;DHT22;9905;52.126;5.596;2023-02-01T02:13:32;6.10;99.90
19522;DHT22;9905;52.126;5.596;2023-02-01T02:16:13;6.20;99.90
19522;DHT22;9905;52.126;5.596;2023-02-01T02:18:52;6.20;99.90
19522;DHT22;9905;52.126;5.596;2023-02-01T02:21:33;6.30;99.90
19522;DHT22;9905;52.126;5.596;2023-02-01T02:24:34;6.30;99.90
19522;DHT22;9905;52.126;5.596;2023-02-01T02:27:10;6.30;99.90
19522;DHT22;9905;52.126;5.596;2023-02-01T02:30:24;6.30;99.90
19522;DHT22;9905;52.126;5.596;2023-02-01T02:33:32;6.40;99.90
19522;DHT22;9905;52.126;5.596;2023-02-01T02:36:07;6.50;99.90
19522;DHT22;9905;52.126;5.596;2023-02-01T02:38:43;6.50;99.90
19522;DHT22;9905;52.126;5.596;2023-02-01T02:41:15;6.50;99.90
19522;DHT22;9905;52.126;5.596;2023-02-01T02:44:10;6.60;99.90
19522;DHT22;9905;52.126;5.596;2023-02-01T02:47:02;6.60;99.90
19522;DHT22;9905;52.126;5.596;2023-02-01T02:49:54;6.60;99.90
19522;DHT22;9905;52.126;5.596;2023-02-01T02:52:44;6.60;99.90
19522;DHT22;9905;52.126;5.596;2023-02-01T02:55:30;6.60;99.90
19522;DHT22;9905;52.126;5.596;2023-02-01T02:57:59;6.60;99.90
19522;DHT22;9905;52.126;5.596;2023-02-01T03:00:44;6.70;99.90
19522;DHT22;9905;52.126;5.596;2023-02-01T03:03:29;6.70;99.90
19522;DHT22;9905;52.126;5.596;2023-02-01T03:06:17;6.70;99.90
19522;DHT22;9905;52.126;5.596;2023-02-01T03:08:44;6.80;99.90
19522;DHT22;9905;52.126;5.596;2023-02-01T03:11:13;6.80;99.90
19522;DHT22;9905;52.126;5.596;2023-02-01T03:13:43;6.80;99.90
19522;DHT22;9905;52.126;5.596;2023-02-01T03:16:14;6.80;99.90
19522;DHT22;9905;52.126;5.596;2023-02-01T03:18:48;6.80;99.90
19522;DHT22;9905;52.126;5.596;2023-02-01T03:21:21;6.80;99.90
19522;DHT22;9905;52.126;5.596;2023-02-01T03:23:51;6.70;99.90
19522;DHT22;9905;52.126;5.596;2023-02-01T03:26:20;6.70;99.90
19522;DHT22;9905;52.126;5.596;2023-02-01T03:28:56;6.70;99.90
19522;DHT22;9905;52.126;5.596;2023-02-01T03:31:24;6.70;99.90
19522;DHT22;9905;52.126;5.596;2023-02-01T03:33:51;6.70;99.90
19522;DHT22;9905;52.126;5.596;2023-02-01T03:36:24;6.70;99.90
19522;DHT22;9905;52.126;5.596;2023-02-01T03:38:57;6.60;99.90
19522;DHT22;9905;52.126;5.596;2023-02-01T03:41:28;6.60;99.90
19522;DHT22;9905;52.126;5.596;2023-02-01T03:44:04;6.60;99.90
19522;DHT22;9905;52.126;5.596;2023-02-01T03:46:37;6.60;99.90
19522;DHT22;9905;52.126;5.596;2023-02-01T03:49:07;6.60;99.90
19522;DHT22;9905;52.126;5.596;2023-02-01T03:51:37;6.60;99.90
19522;DHT22;9905;52.126;5.596;2023-02-01T03:54:05;6.60;99.90
19522;DHT22;9905;52.126;5.596;2023-02-01T03:56:35;6.60;99.90
19522;DHT22;9905;52.126;5.596;2023-02-01T03:59:03;6.50;99.90
19522;DHT22;9905;52.126;5.596;2023-02-01T04:01:30;6.50;99.90
19522;DHT22;9905;52.126;5.596;2023-02-01T04:03:58;6.50;99.90
19522;DHT22;9905;52.126;5.596;2023-02-01T04:06:25;6.60;99.90
19522;DHT22;9905;52.126;5.596;2023-02-01T04:08:53;6.60;99.90
19522;DHT22;9905;52.126;5.596;2023-02-01T04:11:20;6.50;99.90
19522;DHT22;9905;52.126;5.596;2023-02-01T04:13:47;6.50;99.90
19522;DHT22;9905;52.126;5.596;2023-02-01T04:16:14;6.50;99.90
19522;DHT22;9905;52.126;5.596;2023-02-01T04:18:40;6.50;99.90
19522;DHT22;9905;52.126;5.596;2023-02-01T04:21:07;6.60;99.90
19522;DHT22;9905;52.126;5.596;2023-02-01T04:23:34;6.60;99.90
19522;DHT22;9905;52.126;5.596;2023-02-01T04:26:04;6.60;99.90
19522;DHT22;9905;52.126;5.596;2023-02-01T04:28:31;6.60;99.90
19522;DHT22;9905;52.126;5.596;2023-02-01T04:30:58;6.70;99.90
19522;DHT22;9905;52.126;5.596;2023-02-01T04:33:24;6.70;99.90
19522;DHT22;9905;52.126;5.596;2023-02-01T04:35:51;6.70;99.90
19522;DHT22;9905;52.126;5.596;2023-02-01T04:38:18;6.70;99.90
19522;DHT22;9905;52.126;5.596;2023-02-01T04:40:47;6.70;99.90
19522;DHT22;9905;52.126;5.596;2023-02-01T04:43:15;6.70;99.90
19522;DHT22;9905;52.126;5.596;2023-02-01T04:45:46;6.70;99.90
19522;DHT22;9905;52.126;5.596;2023-02-01T04:48:13;6.70;99.90
19522;DHT22;9905;52.126;5.596;2023-02-01T04:50:40;6.80;99.90
19522;DHT22;9905;52.126;5.596;2023-02-01T04:53:07;6.80;99.90
19522;DHT22;9905;52.126;5.596;2023-02-01T04:55:33;6.70;99.90
19522;DHT22;9905;52.126;5.596;2023-02-01T04:58:00;6.80;99.90
19522;DHT22;9905;52.126;5.596;2023-02-01T05:00:28;6.80;99.90
19522;DHT22;9905;52.126;5.596;2023-02-01T05:02:55;6.80;99.90
19522;DHT22;9905;52.126;5.596;2023-02-01T05:05:22;6.80;99.90
19522;DHT22;9905;52.126;5.596;2023-02-01T05:07:49;6.80;99.90
19522;DHT22;9905;52.126;5.596;2023-02-01T05:10:16;6.70;99.90
19522;DHT22;9905;52.126;5.596;2023-02-01T05:12:43;6.70;99.90
19522;DHT22;9905;52.126;5.596;2023-02-01T05:15:28;6.70;99.90
19522;DHT22;9905;52.126;5.596;2023-02-01T05:17:55;6.70;99.90
19522;DHT22;9905;52.126;5.596;2023-02-01T05:20:22;6.70;99.90
19522;DHT22;9905;52.126;5.596;2023-02-01T05:22:49;6.70;99.90
19522;DHT22;9905;52.126;5.596;2023-02-01T05:25:16;6.80;99.90
19522;DHT22;9905;52.126;5.596;2023-02-01T05:27:42;6.80;99.90
19522;DHT22;9905;52.126;5.596;2023-02-01T05:30:10;6.80;99.90
19522;DHT22;9905;52.126;5.596;2023-02-01T05:32:39;6.80;99.90
19522;DHT22;9905;52.126;5.596;2023-02-01T05:35:06;6.80;99.90
19522;DHT22;9905;52.126;5.596;2023-02-01T05:37:33;6.80;99.90
19522;DHT22;9905;52.126;5.596;2023-02-01T05:40:00;6.80;99.90
19522;DHT22;9905;52.126;5.596;2023-02-01T05:42:26;6.80;99.90
19522;DHT22;9905;52.126;5.596;2023-02-01T05:44:53;6.80;99.90
19522;DHT22;9905;52.126;5.596;2023-02-01T05:47:20;6.80;99.90
19522;DHT22;9905;52.126;5.596;2023-02-01T05:49:48;6.80;99.90
19522;DHT22;9905;52.126;5.596;2023-02-01T05:52:15;6.80;99.90
19522;DHT22;9905;52.126;5.596;2023-02-01T05:54:44;6.80;99.90
19522;DHT22;9905;52.126;5.596;2023-02-01T05:57:11;6.80;99.90
19522;DHT22;9905;52.126;5.596;2023-02-01T05:59:38;6.80;99.90
19522;DHT22;9905;52.126;5.596;2023-02-01T06:02:07;6.80;99.90
19522;DHT22;9905;52.126;5.596;2023-02-01T06:04:35;6.80;99.90
19522;DHT22;9905;52.126;5.596;2023-02-01T06:07:03;6.80;99.90
19522;DHT22;9905;52.126;5.596;2023-02-01T06:09:31;6.80;99.90
19522;DHT22;9905;52.126;5.596;2023-02-01T06:11:58;6.80;99.90
19522;DHT22;9905;52.126;5.596;2023-02-01T06:14:24;6.80;99.90
19522;DHT22;9905;52.126;5.596;2023-02-01T06:16:51;6.80;99.90
19522;DHT22;9905;52.126;5.596;2023-02-01T06:19:18;6.90;99.90
19522;DHT22;9905;52.126;5.596;2023-02-01T06:21:45;6.90;99.90
19522;DHT22;9905;52.126;5.596;2023-02-01T06:24:13;6.90;99.90
19522;DHT22;9905;52.126;5.596;2023-02-01T06:26:40;6.90;99.90
19522;DHT22;9905;52.126;5.596;2023-02-01T06:29:09;6.90;99.90
19522;DHT22;9905;52.126;5.596;2023-02-01T06:31:36;6.90;99.90
19522;DHT22;9905;52.126;5.596;2023-02-01T06:34:03;6.90;99.90
19522;DHT22;9905;52.126;5.596;2023-02-01T06:36:29;6.90;99.90
19522;DHT22;9905;52.126;5.596;2023-02-01T06:38:56;6.90;99.90
19522;DHT22;9905;52.126;5.596;2023-02-01T06:41:26;6.90;99.90
19522;DHT22;9905;52.126;5.596;2023-02-01T06:43:53;6.90;99.90
19522;DHT22;9905;52.126;5.596;2023-02-01T06:46:20;6.90;99.90
19522;DHT22;9905;52.126;5.596;2023-02-01T06:48:47;6.80;99.90
19522;DHT22;9905;52.126;5.596;2023-02-01T06:51:22;6.80;99.90
19522;DHT22;9905;52.126;5.596;2023-02-01T06:53:50;6.70;99.90
19522;DHT22;9905;52.126;5.596;2023-02-01T06:56:16;6.70;99.90
19522;DHT22;9905;52.126;5.596;2023-02-01T06:58:45;6.70;99.90
19522;DHT22;9905;52.126;5.596;2023-02-01T07:01:13;6.60;99.90
19522;DHT22;9905;52.126;5.596;2023-02-01T07:03:40;6.60;99.90
19522;DHT22;9905;52.126;5.596;2023-02-01T07:06:08;6.60;99.90
19522;DHT22;9905;52.126;5.596;2023-02-01T07:08:36;6.60;99.90
19522;DHT22;9905;52.126;5.596;2023-02-01T07:11:04;6.60;99.90
19522;DHT22;9905;52.126;5.596;2023-02-01T07:13:32;6.60;99.90
19522;DHT22;9905;52.126;5.596;2023-02-01T07:16:00;6.60;99.90
19522;DHT22;9905;52.126;5.596;2023-02-01T07:18:28;6.50;99.90
19522;DHT22;9905;52.126;5.596;2023-02-01T07:20:55;6.50;99.90
19522;DHT22;9905;52.126;5.596;2023-02-01T07:23:22;6.50;99.90
19522;DHT22;9905;52.126;5.596;2023-02-01T07:25:53;6.50;99.90
19522;DHT22;9905;52.126;5.596;2023-02-01T07:28:20;6.50;99.90
19522;DHT22;9905;52.126;5.596;2023-02-01T07:30:46;6.50;99.90
19522;DHT22;9905;52.126;5.596;2023-02-01T07:33:18;6.50;99.90
19522;DHT22;9905;52.126;5.596;2023-02-01T07:35:45;6.50;99.90
19522;DHT22;9905;52.126;5.596;2023-02-01T07:38:12;6.50;99.90
19522;DHT22;9905;52.126;5.596;2023-02-01T07:40:39;6.50;99.90
19522;DHT22;9905;52.126;5.596;2023-02-01T07:43:06;6.60;99.90
19522;DHT22;9905;52.126;5.596;2023-02-01T07:45:33;6.50;99.90
19522;DHT22;9905;52.126;5.596;2023-02-01T07:48:00;6.50;99.90
19522;DHT22;9905;52.126;5.596;2023-02-01T07:50:28;6.50;99.90
19522;DHT22;9905;52.126;5.596;2023-02-01T07:52:55;6.50;99.90
19522;DHT22;9905;52.126;5.596;2023-02-01T07:55:24;6.50;99.90
19522;DHT22;9905;52.126;5.596;2023-02-01T07:57:51;6.50;99.90
19522;DHT22;9905;52.126;5.596;2023-02-01T08:00:19;6.50;99.90
19522;DHT22;9905;52.126;5.596;2023-02-01T08:03:04;6.50;99.90
19522;DHT22;9905;52.126;5.596;2023-02-01T08:05:32;6.60;99.90
19522;DHT22;9905;52.126;5.596;2023-02-01T08:07:59;6.60;99.90
19522;DHT22;9905;52.126;5.596;2023-02-01T08:10:26;6.60;99.90
19522;DHT22;9905;52.126;5.596;2023-02-01T08:12:58;6.60;99.90
19522;DHT22;9905;52.126;5.596;2023-02-01T08:15:25;6.60;99.90
19522;DHT22;9905;52.126;5.596;2023-02-01T08:17:52;6.60;99.90
19522;DHT22;9905;52.126;5.596;2023-02-01T08:20:19;6.60;99.90
19522;DHT22;9905;52.126;5.596;2023-02-01T08:22:49;6.60;99.90
19522;DHT22;9905;52.126;5.596;2023-02-01T08:25:16;6.60;99.90
19522;DHT22;9905;52.126;5.596;2023-02-01T08:27:43;6.70;99.90
19522;DHT22;9905;52.126;5.596;2023-02-01T08:30:11;6.70;99.90
19522;DHT22;9905;52.126;5.596;2023-02-01T08:32:38;6.70;99.90
19522;DHT22;9905;52.126;5.596;2023-02-01T08:35:05;6.80;99.90
19522;DHT22;9905;52.126;5.596;2023-02-01T08:37:32;6.80;99.90
19522;DHT22;9905;52.126;5.596;2023-02-01T08:40:00;6.90;99.90
19522;DHT22;9905;52.126;5.596;2023-02-01T08:42:27;6.90;99.90
19522;DHT22;9905;52.126;5.596;2023-02-01T08:45:11;6.90;99.90
19522;DHT22;9905;52.126;5.596;2023-02-01T08:47:39;7.00;99.90
19522;DHT22;9905;52.126;5.596;2023-02-01T08:50:06;7.00;99.90
19522;DHT22;9905;52.126;5.596;2023-02-01T08:52:34;7.00;99.90
19522;DHT22;9905;52.126;5.596;2023-02-01T08:55:02;7.00;99.90
19522;DHT22;9905;52.126;5.596;2023-02-01T08:57:29;7.00;99.90
19522;DHT22;9905;52.126;5.596;2023-02-01T08:59:56;7.00;99.90
19522;DHT22;9905;52.126;5.596;2023-02-01T09:02:23;7.00;99.90
19522;DHT22;9905;52.126;5.596;2023-02-01T09:04:50;7.10;99.90
19522;DHT22;9905;52.126;5.596;2023-02-01T09:07:17;7.10;99.90
19522;DHT22;9905;52.126;5.596;2023-02-01T09:09:44;7.20;99.90
19522;DHT22;9905;52.126;5.596;2023-02-01T09:12:13;7.20;99.90
19522;DHT22;9905;52.126;5.596;2023-02-01T09:14:40;7.20;99.90
19522;DHT22;9905;52.126;5.596;2023-02-01T09:17:06;7.20;99.90
19522;DHT22;9905;52.126;5.596;2023-02-01T09:19:33;7.20;99.90
19522;DHT22;9905;52.126;5.596;2023-02-01T09:22:00;7.30;99.90
19522;DHT22;9905;52.126;5.596;2023-02-01T09:24:27;7.40;99.90
19522;DHT22;9905;52.126;5.596;2023-02-01T09:26:54;7.50;99.90
19522;DHT22;9905;52.126;5.596;2023-02-01T09:29:22;7.60;99.90
19522;DHT22;9905;52.126;5.596;2023-02-01T09:31:48;7.70;99.90
19522;DHT22;9905;52.126;5.596;2023-02-01T09:34:15;7.70;99.90
19522;DHT22;9905;52.126;5.596;2023-02-01T09:36:42;7.80;99.90
19522;DHT22;9905;52.126;5.596;2023-02-01T09:39:09;7.80;99.90
19522;DHT22;9905;52.126;5.596;2023-02-01T09:41:44;7.80;99.90
19522;DHT22;9905;52.126;5.596;2023-02-01T09:44:29;7.80;99.90
19522;DHT22;9905;52.126;5.596;2023-02-01T09:46:58;7.80;99.90
19522;DHT22;9905;52.126;5.596;2023-02-01T09:49:29;7.80;99.90
19522;DHT22;9905;52.126;5.596;2023-02-01T09:51:56;7.80;99.90
19522;DHT22;9905;52.126;5.596;2023-02-01T09:54:26;7.80;99.90
19522;DHT22;9905;52.126;5.596;2023-02-01T09:56:58;7.80;99.90
19522;DHT22;9905;52.126;5.596;2023-02-01T09:59:34;7.80;99.90
19522;DHT22;9905;52.126;5.596;2023-02-01T10:02:11;7.80;99.90
19522;DHT22;9905;52.126;5.596;2023-02-01T10:04:39;7.80;99.90
19522;DHT22;9905;52.126;5.596;2023-02-01T10:07:12;7.80;99.90
19522;DHT22;9905;52.126;5.596;2023-02-01T10:09:52;7.80;99.90
19522;DHT22;9905;52.126;5.596;2023-02-01T10:12:48;7.70;99.90
19522;DHT22;9905;52.126;5.596;2023-02-01T10:15:26;7.70;99.90
19522;DHT22;9905;52.126;5.596;2023-02-01T10:18:13;7.70;99.90
19522;DHT22;9905;52.126;5.596;2023-02-01T10:20:52;7.70;99.90
19522;DHT22;9905;52.126;5.596;2023-02-01T10:23:41;7.70;99.90
19522;DHT22;9905;52.126;5.596;2023-02-01T10:26:18;7.60;99.90
19522;DHT22;9905;52.126;5.596;2023-02-01T10:28:46;7.60;99.90
19522;DHT22;9905;52.126;5.596;2023-02-01T10:31:16;7.60;99.90
19522;DHT22;9905;52.126;5.596;2023-02-01T10:33:45;7.50;99.90
19522;DHT22;9905;52.126;5.596;2023-02-01T10:36:15;7.50;99.90
19522;DHT22;9905;52.126;5.596;2023-02-01T10:38:44;7.40;99.90
19522;DHT22;9905;52.126;5.596;2023-02-01T10:41:13;7.30;99.90
19522;DHT22;9905;52.126;5.596;2023-02-01T10:43:42;7.30;99.90
19522;DHT22;9905;52.126;5.596;2023-02-01T10:46:09;7.30;99.90
19522;DHT22;9905;52.126;5.596;2023-02-01T10:48:38;7.30;99.90
19522;DHT22;9905;52.126;5.596;2023-02-01T10:51:10;7.20;99.90
19522;DHT22;9905;52.126;5.596;2023-02-01T10:53:44;7.20;99.90
19522;DHT22;9905;52.126;5.596;2023-02-01T10:56:12;7.20;99.90
19522;DHT22;9905;52.126;5.596;2023-02-01T10:58:44;7.20;99.90
19522;DHT22;9905;52.126;5.596;2023-02-01T11:01:17;7.20;99.90
19522;DHT22;9905;52.126;5.596;2023-02-01T11:03:52;7.30;99.90
19522;DHT22;9905;52.126;5.596;2023-02-01T11:06:26;7.30;99.90
19522;DHT22;9905;52.126;5.596;2023-02-01T11:08:55;7.30;99.90
19522;DHT22;9905;52.126;5.596;2023-02-01T11:11:23;7.30;99.90
19522;DHT22;9905;52.126;5.596;2023-02-01T11:13:55;7.40;99.90
19522;DHT22;9905;52.126;5.596;2023-02-01T11:16:29;7.40;99.90
19522;DHT22;9905;52.126;5.596;2023-02-01T11:18:58;7.40;99.90
19522;DHT22;9905;52.126;5.596;2023-02-01T11:21:25;7.50;99.90
19522;DHT22;9905;52.126;5.596;2023-02-01T11:23:52;7.50;99.90
19522;DHT22;9905;52.126;5.596;2023-02-01T11:26:22;7.50;99.90
19522;DHT22;9905;52.126;5.596;2023-02-01T11:28:56;7.50;99.90
19522;DHT22;9905;52.126;5.596;2023-02-01T11:31:25;7.60;99.90
19522;DHT22;9905;52.126;5.596;2023-02-01T11:33:54;7.60;99.90
19522;DHT22;9905;52.126;5.596;2023-02-01T11:36:27;7.60;99.90
19522;DHT22;9905;52.126;5.596;2023-02-01T11:39:08;7.60;99.90
19522;DHT22;9905;52.126;5.596;2023-02-01T11:41:41;7.60;99.90
19522;DHT22;9905;52.126;5.596;2023-02-01T11:44:20;7.70;99.90
19522;DHT22;9905;52.126;5.596;2023-02-01T11:46:47;7.70;99.90
19522;DHT22;9905;52.126;5.596;2023-02-01T11:49:20;7.80;99.90
19522;DHT22;9905;52.126;5.596;2023-02-01T11:52:01;7.80;99.90
19522;DHT22;9905;52.126;5.596;2023-02-01T11:55:00;7.90;99.90
19522;DHT22;9905;52.126;5.596;2023-02-01T11:57:45;7.90;99.90
19522;DHT22;9905;52.126;5.596;2023-02-01T12:00:32;8.00;99.90
19522;DHT22;9905;52.126;5.596;2023-02-01T12:06:07;8.10;99.90
19522;DHT22;9905;52.126;5.596;2023-02-01T12:09:13;8.10;99.90
19522;DHT22;9905;52.126;5.596;2023-02-01T12:11:51;8.10;99.90
19522;DHT22;9905;52.126;5.596;2023-02-01T12:14:32;8.10;99.90
19522;DHT22;9905;52.126;5.596;2023-02-01T12:17:38;8.20;99.90
19522;DHT22;9905;52.126;5.596;2023-02-01T12:20:28;8.10;99.90
19522;DHT22;9905;52.126;5.596;2023-02-01T12:23:06;8.20;99.90
19522;DHT22;9905;52.126;5.596;2023-02-01T12:25:52;8.20;99.90
19522;DHT22;9905;52.126;5.596;2023-02-01T12:28:34;8.20;99.90
19522;DHT22;9905;52.126;5.596;2023-02-01T12:31:32;8.30;99.90
19522;DHT22;9905;52.126;5.596;2023-02-01T12:34:19;8.30;99.90
19522;DHT22;9905;52.126;5.596;2023-02-01T12:36:54;8.30;99.90
19522;DHT22;9905;52.126;5.596;2023-02-01T12:39:27;8.30;99.90
19522;DHT22;9905;52.126;5.596;2023-02-01T12:42:03;8.30;99.90
19522;DHT22;9905;52.126;5.596;2023-02-01T12:44:41;8.30;99.90
19522;DHT22;9905;52.126;5.596;2023-02-01T12:47:18;8.30;99.90
19522;DHT22;9905;52.126;5.596;2023-02-01T12:49:51;8.30;99.90
19522;DHT22;9905;52.126;5.596;2023-02-01T12:52:23;8.30;99.90
19522;DHT22;9905;52.126;5.596;2023-02-01T12:54:57;8.30;99.90
19522;DHT22;9905;52.126;5.596;2023-02-01T12:57:28;8.30;99.90
19522;DHT22;9905;52.126;5.596;2023-02-01T13:00:02;8.30;99.90
19522;DHT22;9905;52.126;5.596;2023-02-01T13:02:37;8.30;99.90
19522;DHT22;9905;52.126;5.596;2023-02-01T13:05:14;8.30;99.90
19522;DHT22;9905;52.126;5.596;2023-02-01T13:07:46;8.20;99.90
19522;DHT22;9905;52.126;5.596;2023-02-01T13:10:16;8.20;99.90
19522;DHT22;9905;52.126;5.596;2023-02-01T13:12:51;8.20;99.90
19522;DHT22;9905;52.126;5.596;2023-02-01T13:15:23;8.20;99.90
19522;DHT22;9905;52.126;5.596;2023-02-01T13:17:51;8.20;99.90
19522;DHT22;9905;52.126;5.596;2023-02-01T13:20:24;8.20;99.90
19522;DHT22;9905;52.126;5.596;2023-02-01T13:22:54;8.20;99.90
19522;DHT22;9905;52.126;5.596;2023-02-01T13:25:31;8.20;99.90
19522;DHT22;9905;52.126;5.596;2023-02-01T13:28:04;8.20;99.90
19522;DHT22;9905;52.126;5.596;2023-02-01T13:30:41;8.20;99.90
19522;DHT22;9905;52.126;5.596;2023-02-01T13:39:36;8.20;99.90
19522;DHT22;9905;52.126;5.596;2023-02-01T13:42:14;8.20;99.90
19522;DHT22;9905;52.126;5.596;2023-02-01T13:44:46;8.20;99.90
19522;DHT22;9905;52.126;5.596;2023-02-01T13:47:24;8.20;99.90
19522;DHT22;9905;52.126;5.596;2023-02-01T13:49:52;8.20;99.90
19522;DHT22;9905;52.126;5.596;2023-02-01T13:52:25;8.30;99.90
19522;DHT22;9905;52.126;5.596;2023-02-01T13:55:03;8.30;99.90
19522;DHT22;9905;52.126;5.596;2023-02-01T13:57:42;8.40;99.90
19522;DHT22;9905;52.126;5.596;2023-02-01T14:00:23;8.30;99.90
19522;DHT22;9905;52.126;5.596;2023-02-01T14:03:07;8.40;99.90
19522;DHT22;9905;52.126;5.596;2023-02-01T14:05:54;8.40;99.90
19522;DHT22;9905;52.126;5.596;2023-02-01T14:08:24;8.40;99.90
19522;DHT22;9905;52.126;5.596;2023-02-01T14:11:02;8.40;99.90
19522;DHT22;9905;52.126;5.596;2023-02-01T14:13:31;8.40;99.90
19522;DHT22;9905;52.126;5.596;2023-02-01T14:16:14;8.40;99.90
19522;DHT22;9905;52.126;5.596;2023-02-01T14:18:58;8.40;99.90
19522;DHT22;9905;52.126;5.596;2023-02-01T14:21:28;8.40;99.90
19522;DHT22;9905;52.126;5.596;2023-02-01T14:23:58;8.50;99.90
19522;DHT22;9905;52.126;5.596;2023-02-01T14:26:26;8.50;99.90
19522;DHT22;9905;52.126;5.596;2023-02-01T14:29:01;8.50;99.90
19522;DHT22;9905;52.126;5.596;2023-02-01T14:31:48;8.40;99.90
19522;DHT22;9905;52.126;5.596;2023-02-01T14:34:30;8.40;99.90
19522;DHT22;9905;52.126;5.596;2023-02-01T14:37:00;8.50;99.90
19522;DHT22;9905;52.126;5.596;2023-02-01T14:39:35;8.40;99.90
19522;DHT22;9905;52.126;5.596;2023-02-01T14:42:13;8.40;99.90
19522;DHT22;9905;52.126;5.596;2023-02-01T14:44:42;8.40;99.90
19522;DHT22;9905;52.126;5.596;2023-02-01T14:47:34;8.40;99.90
19522;DHT22;9905;52.126;5.596;2023-02-01T14:53:16;8.50;99.90
19522;DHT22;9905;52.126;5.596;2023-02-01T14:55:47;8.50;99.90
19522;DHT22;9905;52.126;5.596;2023-02-01T14:58:25;8.40;99.90
19522;DHT22;9905;52.126;5.596;2023-02-01T15:00:55;8.50;99.90
19522;DHT22;9905;52.126;5.596;2023-02-01T15:03:39;8.40;99.90
19522;DHT22;9905;52.126;5.596;2023-02-01T15:06:21;8.40;99.90
19522;DHT22;9905;52.126;5.596;2023-02-01T15:08:49;8.30;99.90
19522;DHT22;9905;52.126;5.596;2023-02-01T15:11:20;8.20;99.90
19522;DHT22;9905;52.126;5.596;2023-02-01T15:13:51;8.00;99.90
19522;DHT22;9905;52.126;5.596;2023-02-01T15:16:20;7.90;99.90
19522;DHT22;9905;52.126;5.596;2023-02-01T15:18:49;7.90;99.90
19522;DHT22;9905;52.126;5.596;2023-02-01T15:21:19;7.70;99.90
19522;DHT22;9905;52.126;5.596;2023-02-01T15:23:46;7.60;99.90
19522;DHT22;9905;52.126;5.596;2023-02-01T15:26:27;7.60;99.90
19522;DHT22;9905;52.126;5.596;2023-02-01T15:28:56;7.60;99.90
19522;DHT22;9905;52.126;5.596;2023-02-01T15:31:35;7.50;99.90
19522;DHT22;9905;52.126;5.596;2023-02-01T15:34:03;7.50;99.90
19522;DHT22;9905;52.126;5.596;2023-02-01T15:36:30;7.60;99.90
19522;DHT22;9905;52.126;5.596;2023-02-01T15:39:19;7.60;99.90
19522;DHT22;9905;52.126;5.596;2023-02-01T15:41:50;7.60;99.90
19522;DHT22;9905;52.126;5.596;2023-02-01T15:44:21;7.80;99.90
19522;DHT22;9905;52.126;5.596;2023-02-01T15:46:50;8.00;99.90
19522;DHT22;9905;52.126;5.596;2023-02-01T15:49:23;8.00;99.90
19522;DHT22;9905;52.126;5.596;2023-02-01T15:51:52;8.10;99.90
19522;DHT22;9905;52.126;5.596;2023-02-01T15:54:24;8.00;99.90
19522;DHT22;9905;52.126;5.596;2023-02-01T15:56:53;8.10;99.90
19522;DHT22;9905;52.126;5.596;2023-02-01T15:59:22;8.10;99.90
19522;DHT22;9905;52.126;5.596;2023-02-01T16:01:51;8.20;99.90
19522;DHT22;9905;52.126;5.596;2023-02-01T16:04:21;8.10;99.90
19522;DHT22;9905;52.126;5.596;2023-02-01T16:06:51;8.10;99.90
19522;DHT22;9905;52.126;5.596;2023-02-01T16:09:20;8.20;99.90
19522;DHT22;9905;52.126;5.596;2023-02-01T16:11:52;8.20;99.90
19522;DHT22;9905;52.126;5.596;2023-02-01T16:14:19;8.20;99.90
19522;DHT22;9905;52.126;5.596;2023-02-01T16:16:46;8.20;99.90
19522;DHT22;9905;52.126;5.596;2023-02-01T16:19:13;8.20;99.90
19522;DHT22;9905;52.126;5.596;2023-02-01T16:21:41;8.20;99.90
19522;DHT22;9905;52.126;5.596;2023-02-01T16:24:08;8.20;99.90
19522;DHT22;9905;52.126;5.596;2023-02-01T16:26:35;8.30;99.90
19522;DHT22;9905;52.126;5.596;2023-02-01T16:29:02;8.30;99.90
19522;DHT22;9905;52.126;5.596;2023-02-01T16:31:34;8.30;99.90
19522;DHT22;9905;52.126;5.596;2023-02-01T16:34:01;8.30;99.90
19522;DHT22;9905;52.126;5.596;2023-02-01T16:36:28;8.30;99.90
19522;DHT22;9905;52.126;5.596;2023-02-01T16:38:56;8.30;99.90
19522;DHT22;9905;52.126;5.596;2023-02-01T16:41:24;8.30;99.90
19522;DHT22;9905;52.126;5.596;2023-02-01T16:43:52;8.30;99.90